sensor_id;sensor_type;location;lat;lon;timestamp;pressure;altitude;pressure_sealevel;temperature;humidity
75998;BME280;64685;48.762;44.822;2023-11-18T00:00:33;101125.34;;;9.27;100.00
75998;BME280;64685;48.762;44.822;2023-11-18T00:05:36;101117.16;;;9.17;100.00
75998;BME280;64685;48.762;44.822;2023-11-18T00:10:38;101123.09;;;9.11;100.00
75998;BME280;64685;48.762;44.822;2023-11-18T00:15:41;101120.94;;;9.08;100.00
75998;BME280;64685;48.762;44.822;2023-11-18T00:20:45;101122.53;;;8.95;100.00
75998;BME280;64685;48.762;44.822;2023-11-18T00:25:48;101128.66;;;9.29;100.00
75998;BME280;64685;48.762;44.822;2023-11-18T00:30:50;101131.19;;;9.44;100.00
75998;BME280;64685;48.762;44.822;2023-11-18T00:35:53;101137.81;;;9.48;100.00
75998;BME280;64685;48.762;44.822;2023-11-18T00:40:56;101135.69;;;9.08;100.00
75998;BME280;64685;48.762;44.822;2023-11-18T00:45:59;101135.03;;;8.98;100.00
75998;BME280;64685;48.762;44.822;2023-11-18T00:51:02;101134.28;;;8.92;100.00
75998;BME280;64685;48.762;44.822;2023-11-18T00:56:05;101134.72;;;8.81;100.00
75998;BME280;64685;48.762;44.822;2023-11-18T01:01:12;101135.47;;;9.05;100.00
75998;BME280;64685;48.762;44.822;2023-11-18T01:06:15;101137.81;;;9.16;100.00
75998;BME280;64685;48.762;44.822;2023-11-18T01:11:20;101134.31;;;9.24;100.00
75998;BME280;64685;48.762;44.822;2023-11-18T01:16:24;101137.97;;;9.38;100.00
75998;BME280;64685;48.762;44.822;2023-11-18T01:21:27;101139.16;;;9.51;100.00
75998;BME280;64685;48.762;44.822;2023-11-18T01:26:30;101137.69;;;9.53;100.00
75998;BME280;64685;48.762;44.822;2023-11-18T01:31:33;101132.25;;;9.62;100.00
75998;BME280;64685;48.762;44.822;2023-11-18T01:36:51;101131.97;;;9.31;100.00
75998;BME280;64685;48.762;44.822;2023-11-18T01:41:55;101127.31;;;9.27;100.00
75998;BME280;64685;48.762;44.822;2023-11-18T01:46:58;101130.50;;;9.02;100.00
75998;BME280;64685;48.762;44.822;2023-11-18T01:52:02;101136.75;;;8.94;100.00
75998;BME280;64685;48.762;44.822;2023-11-18T01:57:05;101148.81;;;8.89;100.00
75998;BME280;64685;48.762;44.822;2023-11-18T02:02:08;101158.50;;;9.10;100.00
75998;BME280;64685;48.762;44.822;2023-11-18T02:07:11;101158.88;;;9.04;100.00
75998;BME280;64685;48.762;44.822;2023-11-18T02:12:29;101154.16;;;9.23;100.00
75998;BME280;64685;48.762;44.822;2023-11-18T02:17:38;101158.31;;;9.39;100.00
75998;BME280;64685;48.762;44.822;2023-11-18T02:22:42;101157.94;;;9.45;100.00
75998;BME280;64685;48.762;44.822;2023-11-18T02:27:46;101163.00;;;9.43;100.00
75998;BME280;64685;48.762;44.822;2023-11-18T02:33:30;101165.31;;;9.36;100.00
75998;BME280;64685;48.762;44.822;2023-11-18T02:38:47;101163.00;;;9.25;100.00
75998;BME280;64685;48.762;44.822;2023-11-18T02:43:52;101172.72;;;9.27;100.00
75998;BME280;64685;48.762;44.822;2023-11-18T02:48:55;101161.50;;;9.32;100.00
75998;BME280;64685;48.762;44.822;2023-11-18T02:53:58;101164.81;;;9.34;100.00
75998;BME280;64685;48.762;44.822;2023-11-18T02:59:02;101173.25;;;9.11;100.00
75998;BME280;64685;48.762;44.822;2023-11-18T03:04:08;101174.66;;;8.95;100.00
75998;BME280;64685;48.762;44.822;2023-11-18T03:09:11;101175.44;;;8.95;100.00
75998;BME280;64685;48.762;44.822;2023-11-18T03:14:16;101177.94;;;9.15;100.00
75998;BME280;64685;48.762;44.822;2023-11-18T03:19:18;101180.72;;;9.15;100.00
75998;BME280;64685;48.762;44.822;2023-11-18T03:24:22;101178.00;;;9.29;100.00
75998;BME280;64685;48.762;44.822;2023-11-18T03:29:24;101174.59;;;9.32;100.00
75998;BME280;64685;48.762;44.822;2023-11-18T03:34:27;101176.38;;;9.41;100.00
75998;BME280;64685;48.762;44.822;2023-11-18T03:39:30;101191.75;;;9.39;100.00
75998;BME280;64685;48.762;44.822;2023-11-18T03:44:33;101208.25;;;9.54;100.00
75998;BME280;64685;48.762;44.822;2023-11-18T03:49:35;101212.00;;;9.63;100.00
75998;BME280;64685;48.762;44.822;2023-11-18T03:54:39;101218.41;;;9.63;100.00
75998;BME280;64685;48.762;44.822;2023-11-18T03:59:41;101216.66;;;9.67;100.00
75998;BME280;64685;48.762;44.822;2023-11-18T04:04:44;101212.06;;;9.76;100.00
75998;BME280;64685;48.762;44.822;2023-11-18T04:09:47;101212.25;;;9.80;100.00
75998;BME280;64685;48.762;44.822;2023-11-18T04:14:50;101209.16;;;9.81;100.00
75998;BME280;64685;48.762;44.822;2023-11-18T04:19:52;101221.78;;;9.92;100.00
75998;BME280;64685;48.762;44.822;2023-11-18T04:24:58;101222.19;;;9.86;100.00
75998;BME280;64685;48.762;44.822;2023-11-18T04:30:01;101229.00;;;9.80;100.00
75998;BME280;64685;48.762;44.822;2023-11-18T04:35:04;101230.53;;;9.72;100.00
75998;BME280;64685;48.762;44.822;2023-11-18T04:40:12;101238.03;;;9.72;100.00
75998;BME280;64685;48.762;44.822;2023-11-18T04:45:15;101247.00;;;9.87;100.00
75998;BME280;64685;48.762;44.822;2023-11-18T04:50:19;101249.69;;;9.92;100.00
75998;BME280;64685;48.762;44.822;2023-11-18T04:55:21;101247.59;;;9.84;100.00
75998;BME280;64685;48.762;44.822;2023-11-18T05:00:24;101245.41;;;9.81;100.00
75998;BME280;64685;48.762;44.822;2023-11-18T05:05:27;101255.25;;;9.92;100.00
75998;BME280;64685;48.762;44.822;2023-11-18T05:10:29;101255.13;;;9.84;100.00
75998;BME280;64685;48.762;44.822;2023-11-18T05:15:32;101256.34;;;9.78;100.00
75998;BME280;64685;48.762;44.822;2023-11-18T05:20:35;101260.81;;;9.79;100.00
75998;BME280;64685;48.762;44.822;2023-11-18T05:25:39;101264.69;;;9.96;100.00
75998;BME280;64685;48.762;44.822;2023-11-18T05:30:42;101269.50;;;10.09;100.00
75998;BME280;64685;48.762;44.822;2023-11-18T05:35:46;101280.50;;;10.01;100.00
75998;BME280;64685;48.762;44.822;2023-11-18T05:40:52;101282.78;;;9.99;100.00
75998;BME280;64685;48.762;44.822;2023-11-18T05:46:03;101279.84;;;9.40;100.00
75998;BME280;64685;48.762;44.822;2023-11-18T05:51:27;101291.50;;;9.23;100.00
75998;BME280;64685;48.762;44.822;2023-11-18T05:56:31;101294.00;;;9.43;100.00
75998;BME280;64685;48.762;44.822;2023-11-18T06:01:34;101287.00;;;9.46;100.00
75998;BME280;64685;48.762;44.822;2023-11-18T06:06:37;101297.63;;;9.44;100.00
75998;BME280;64685;48.762;44.822;2023-11-18T06:11:39;101302.44;;;9.38;100.00
75998;BME280;64685;48.762;44.822;2023-11-18T06:16:43;101294.38;;;9.37;100.00
75998;BME280;64685;48.762;44.822;2023-11-18T06:21:46;101301.81;;;9.41;100.00
75998;BME280;64685;48.762;44.822;2023-11-18T06:26:49;101309.53;;;9.31;100.00
75998;BME280;64685;48.762;44.822;2023-11-18T06:31:51;101303.59;;;9.37;100.00
75998;BME280;64685;48.762;44.822;2023-11-18T06:36:54;101304.69;;;9.36;100.00
75998;BME280;64685;48.762;44.822;2023-11-18T06:41:58;101317.13;;;9.44;100.00
75998;BME280;64685;48.762;44.822;2023-11-18T06:47:01;101309.38;;;9.59;100.00
75998;BME280;64685;48.762;44.822;2023-11-18T06:52:04;101312.84;;;9.51;100.00
75998;BME280;64685;48.762;44.822;2023-11-18T06:57:07;101329.88;;;9.68;100.00
75998;BME280;64685;48.762;44.822;2023-11-18T07:02:10;101325.13;;;9.69;100.00
75998;BME280;64685;48.762;44.822;2023-11-18T07:07:13;101334.94;;;9.66;100.00
75998;BME280;64685;48.762;44.822;2023-11-18T07:12:15;101334.91;;;9.48;100.00
75998;BME280;64685;48.762;44.822;2023-11-18T07:17:18;101346.16;;;9.19;100.00
75998;BME280;64685;48.762;44.822;2023-11-18T07:22:21;101349.50;;;9.21;100.00
75998;BME280;64685;48.762;44.822;2023-11-18T07:27:24;101350.38;;;8.98;100.00
75998;BME280;64685;48.762;44.822;2023-11-18T07:32:27;101355.22;;;8.64;100.00
75998;BME280;64685;48.762;44.822;2023-11-18T07:37:29;101367.13;;;8.70;100.00
75998;BME280;64685;48.762;44.822;2023-11-18T07:42:35;101368.09;;;8.55;100.00
75998;BME280;64685;48.762;44.822;2023-11-18T07:47:38;101358.75;;;8.70;100.00
75998;BME280;64685;48.762;44.822;2023-11-18T07:52:41;101356.63;;;8.85;100.00
75998;BME280;64685;48.762;44.822;2023-11-18T07:57:44;101355.81;;;8.85;100.00
75998;BME280;64685;48.762;44.822;2023-11-18T08:02:47;101353.44;;;8.73;100.00
75998;BME280;64685;48.762;44.822;2023-11-18T08:07:51;101369.19;;;8.59;100.00
75998;BME280;64685;48.762;44.822;2023-11-18T08:12:53;101369.81;;;8.51;100.00
75998;BME280;64685;48.762;44.822;2023-11-18T08:17:56;101376.34;;;8.37;100.00
75998;BME280;64685;48.762;44.822;2023-11-18T08:22:59;101372.09;;;8.44;100.00
75998;BME280;64685;48.762;44.822;2023-11-18T08:28:04;101380.38;;;8.21;100.00
75998;BME280;64685;48.762;44.822;2023-11-18T08:33:08;101385.38;;;8.24;100.00
75998;BME280;64685;48.762;44.822;2023-11-18T08:38:11;101376.19;;;8.23;100.00
75998;BME280;64685;48.762;44.822;2023-11-18T08:43:15;101392.53;;;7.96;100.00
75998;BME280;64685;48.762;44.822;2023-11-18T08:48:19;101403.81;;;7.71;100.00
75998;BME280;64685;48.762;44.822;2023-11-18T08:53:21;101398.41;;;7.90;100.00
75998;BME280;64685;48.762;44.822;2023-11-18T08:58:28;101407.69;;;7.75;100.00
75998;BME280;64685;48.762;44.822;2023-11-18T09:03:36;101411.94;;;7.58;100.00
75998;BME280;64685;48.762;44.822;2023-11-18T09:08:39;101412.78;;;7.58;100.00
75998;BME280;64685;48.762;44.822;2023-11-18T09:13:46;101423.19;;;7.38;100.00
75998;BME280;64685;48.762;44.822;2023-11-18T09:18:53;101422.09;;;7.34;100.00
75998;BME280;64685;48.762;44.822;2023-11-18T09:23:56;101424.16;;;7.62;100.00
75998;BME280;64685;48.762;44.822;2023-11-18T09:28:59;101430.44;;;7.29;100.00
75998;BME280;64685;48.762;44.822;2023-11-18T09:34:04;101422.59;;;7.41;100.00
75998;BME280;64685;48.762;44.822;2023-11-18T09:39:09;101427.22;;;7.60;100.00
75998;BME280;64685;48.762;44.822;2023-11-18T09:44:27;101445.91;;;7.50;100.00
75998;BME280;64685;48.762;44.822;2023-11-18T09:49:32;101453.38;;;7.54;100.00
75998;BME280;64685;48.762;44.822;2023-11-18T09:55:01;101449.50;;;7.50;100.00
75998;BME280;64685;48.762;44.822;2023-11-18T10:00:07;101463.78;;;7.29;100.00
75998;BME280;64685;48.762;44.822;2023-11-18T10:05:23;101471.34;;;7.03;100.00
75998;BME280;64685;48.762;44.822;2023-11-18T10:10:30;101481.97;;;6.61;100.00
75998;BME280;64685;48.762;44.822;2023-11-18T10:15:39;101492.81;;;6.53;100.00
75998;BME280;64685;48.762;44.822;2023-11-18T10:20:46;101500.81;;;6.64;100.00
75998;BME280;64685;48.762;44.822;2023-11-18T10:25:55;101480.59;;;6.59;100.00
75998;BME280;64685;48.762;44.822;2023-11-18T10:31:05;101493.59;;;6.38;100.00
75998;BME280;64685;48.762;44.822;2023-11-18T10:36:21;101501.94;;;6.48;100.00
75998;BME280;64685;48.762;44.822;2023-11-18T10:41:26;101508.88;;;6.66;100.00
75998;BME280;64685;48.762;44.822;2023-11-18T10:46:29;101512.19;;;6.58;100.00
75998;BME280;64685;48.762;44.822;2023-11-18T10:51:32;101526.91;;;6.28;100.00
75998;BME280;64685;48.762;44.822;2023-11-18T10:56:37;101529.38;;;6.20;100.00
75998;BME280;64685;48.762;44.822;2023-11-18T11:01:40;101532.09;;;6.05;100.00
75998;BME280;64685;48.762;44.822;2023-11-18T11:06:50;101535.19;;;6.13;100.00
75998;BME280;64685;48.762;44.822;2023-11-18T11:11:58;101550.91;;;5.88;100.00
75998;BME280;64685;48.762;44.822;2023-11-18T11:17:08;101545.03;;;5.79;100.00
75998;BME280;64685;48.762;44.822;2023-11-18T11:22:24;101552.47;;;5.69;100.00
75998;BME280;64685;48.762;44.822;2023-11-18T11:27:33;101553.59;;;5.78;100.00
75998;BME280;64685;48.762;44.822;2023-11-18T11:32:47;101553.81;;;5.61;100.00
75998;BME280;64685;48.762;44.822;2023-11-18T11:37:56;101567.38;;;5.58;100.00
75998;BME280;64685;48.762;44.822;2023-11-18T11:43:08;101587.31;;;5.60;100.00
75998;BME280;64685;48.762;44.822;2023-11-18T11:48:18;101578.41;;;5.48;100.00
75998;BME280;64685;48.762;44.822;2023-11-18T11:53:32;101600.47;;;5.33;100.00
75998;BME280;64685;48.762;44.822;2023-11-18T11:58:35;101591.34;;;5.32;100.00
75998;BME280;64685;48.762;44.822;2023-11-18T12:03:57;101598.91;;;5.47;100.00
75998;BME280;64685;48.762;44.822;2023-11-18T12:09:01;101607.44;;;5.40;100.00
75998;BME280;64685;48.762;44.822;2023-11-18T12:14:08;101626.06;;;5.13;100.00
75998;BME280;64685;48.762;44.822;2023-11-18T12:19:38;101625.00;;;5.19;100.00
75998;BME280;64685;48.762;44.822;2023-11-18T12:35:27;101647.75;;;5.21;100.00
75998;BME280;64685;48.762;44.822;2023-11-18T12:51:23;101668.78;;;5.22;100.00
75998;BME280;64685;48.762;44.822;2023-11-18T12:56:26;101681.66;;;5.38;100.00
75998;BME280;64685;48.762;44.822;2023-11-18T13:01:31;101677.47;;;5.36;100.00
75998;BME280;64685;48.762;44.822;2023-11-18T13:06:36;101685.75;;;5.31;100.00
75998;BME280;64685;48.762;44.822;2023-11-18T13:11:39;101690.09;;;5.22;100.00
75998;BME280;64685;48.762;44.822;2023-11-18T13:16:45;101701.81;;;5.34;100.00
75998;BME280;64685;48.762;44.822;2023-11-18T13:21:49;101712.78;;;5.19;100.00
75998;BME280;64685;48.762;44.822;2023-11-18T13:26:53;101709.31;;;5.02;100.00
75998;BME280;64685;48.762;44.822;2023-11-18T13:31:57;101729.81;;;5.06;100.00
75998;BME280;64685;48.762;44.822;2023-11-18T13:37:00;101725.13;;;5.06;100.00
75998;BME280;64685;48.762;44.822;2023-11-18T13:42:23;101728.56;;;4.92;100.00
75998;BME280;64685;48.762;44.822;2023-11-18T13:47:28;101736.25;;;4.85;100.00
75998;BME280;64685;48.762;44.822;2023-11-18T13:52:31;101733.13;;;4.76;100.00
75998;BME280;64685;48.762;44.822;2023-11-18T13:57:34;101739.47;;;4.77;100.00
75998;BME280;64685;48.762;44.822;2023-11-18T14:02:43;101749.59;;;4.66;100.00
75998;BME280;64685;48.762;44.822;2023-11-18T14:07:47;101751.94;;;4.79;100.00
75998;BME280;64685;48.762;44.822;2023-11-18T14:13:04;101767.75;;;5.05;100.00
75998;BME280;64685;48.762;44.822;2023-11-18T14:18:15;101781.28;;;5.28;100.00
75998;BME280;64685;48.762;44.822;2023-11-18T14:23:18;101795.31;;;5.22;100.00
75998;BME280;64685;48.762;44.822;2023-11-18T14:28:21;101797.72;;;5.13;100.00
75998;BME280;64685;48.762;44.822;2023-11-18T14:33:27;101811.13;;;5.21;100.00
75998;BME280;64685;48.762;44.822;2023-11-18T14:38:30;101806.03;;;5.13;100.00
75998;BME280;64685;48.762;44.822;2023-11-18T14:43:33;101812.66;;;5.12;100.00
75998;BME280;64685;48.762;44.822;2023-11-18T14:48:36;101806.75;;;5.04;100.00
75998;BME280;64685;48.762;44.822;2023-11-18T14:53:39;101811.19;;;5.05;100.00
75998;BME280;64685;48.762;44.822;2023-11-18T14:58:42;101817.88;;;4.82;100.00
75998;BME280;64685;48.762;44.822;2023-11-18T15:03:45;101821.81;;;4.91;100.00
75998;BME280;64685;48.762;44.822;2023-11-18T15:08:48;101826.09;;;4.77;100.00
75998;BME280;64685;48.762;44.822;2023-11-18T15:13:51;101842.88;;;4.71;100.00
75998;BME280;64685;48.762;44.822;2023-11-18T15:18:58;101844.22;;;4.68;100.00
75998;BME280;64685;48.762;44.822;2023-11-18T15:24:01;101858.53;;;4.60;100.00
75998;BME280;64685;48.762;44.822;2023-11-18T15:29:06;101855.75;;;4.60;100.00
75998;BME280;64685;48.762;44.822;2023-11-18T15:34:18;101861.53;;;4.59;100.00
75998;BME280;64685;48.762;44.822;2023-11-18T15:39:21;101878.38;;;4.57;100.00
75998;BME280;64685;48.762;44.822;2023-11-18T15:44:25;101878.78;;;4.66;100.00
75998;BME280;64685;48.762;44.822;2023-11-18T15:49:31;101864.47;;;4.52;100.00
75998;BME280;64685;48.762;44.822;2023-11-18T15:54:36;101844.47;;;4.45;100.00
75998;BME280;64685;48.762;44.822;2023-11-18T15:59:39;101839.59;;;4.52;100.00
75998;BME280;64685;48.762;44.822;2023-11-18T16:04:42;101848.91;;;4.46;100.00
75998;BME280;64685;48.762;44.822;2023-11-18T16:09:45;101865.00;;;4.49;100.00
75998;BME280;64685;48.762;44.822;2023-11-18T16:14:47;101867.38;;;4.41;100.00
75998;BME280;64685;48.762;44.822;2023-11-18T16:19:51;101879.38;;;4.30;100.00
75998;BME280;64685;48.762;44.822;2023-11-18T16:24:53;101899.03;;;4.33;100.00
75998;BME280;64685;48.762;44.822;2023-11-18T16:29:56;101902.47;;;4.40;100.00
75998;BME280;64685;48.762;44.822;2023-11-18T16:35:00;101927.13;;;4.42;100.00
75998;BME280;64685;48.762;44.822;2023-11-18T16:40:06;101911.53;;;4.36;100.00
75998;BME280;64685;48.762;44.822;2023-11-18T16:45:10;101927.34;;;4.40;100.00
75998;BME280;64685;48.762;44.822;2023-11-18T16:50:13;101926.69;;;4.33;100.00
75998;BME280;64685;48.762;44.822;2023-11-18T16:55:19;101926.25;;;4.41;100.00
75998;BME280;64685;48.762;44.822;2023-11-18T17:00:25;101936.91;;;4.33;100.00
75998;BME280;64685;48.762;44.822;2023-11-18T17:05:30;101939.03;;;4.42;100.00
75998;BME280;64685;48.762;44.822;2023-11-18T17:10:34;101927.44;;;4.45;100.00
75998;BME280;64685;48.762;44.822;2023-11-18T17:15:37;101925.13;;;4.37;100.00
75998;BME280;64685;48.762;44.822;2023-11-18T17:20:40;101921.41;;;4.48;100.00
75998;BME280;64685;48.762;44.822;2023-11-18T17:25:43;101923.84;;;4.45;100.00
75998;BME280;64685;48.762;44.822;2023-11-18T17:30:47;101937.94;;;4.43;100.00
75998;BME280;64685;48.762;44.822;2023-11-18T17:35:51;101948.81;;;4.33;100.00
75998;BME280;64685;48.762;44.822;2023-11-18T17:40:53;101950.66;;;4.44;100.00
75998;BME280;64685;48.762;44.822;2023-11-18T17:45:56;101968.34;;;4.43;100.00
75998;BME280;64685;48.762;44.822;2023-11-18T17:51:01;101977.56;;;4.49;100.00
75998;BME280;64685;48.762;44.822;2023-11-18T17:56:06;101991.56;;;4.42;100.00
75998;BME280;64685;48.762;44.822;2023-11-18T18:01:09;101989.38;;;4.44;100.00
75998;BME280;64685;48.762;44.822;2023-11-18T18:06:12;101994.66;;;4.46;100.00
75998;BME280;64685;48.762;44.822;2023-11-18T18:11:16;101986.53;;;4.39;100.00
75998;BME280;64685;48.762;44.822;2023-11-18T18:16:19;101983.19;;;4.37;100.00
75998;BME280;64685;48.762;44.822;2023-11-18T18:21:22;101975.56;;;4.44;100.00
75998;BME280;64685;48.762;44.822;2023-11-18T18:26:25;101986.13;;;4.47;100.00
75998;BME280;64685;48.762;44.822;2023-11-18T18:31:28;101967.69;;;4.36;100.00
75998;BME280;64685;48.762;44.822;2023-11-18T18:36:31;101962.22;;;4.41;100.00
75998;BME280;64685;48.762;44.822;2023-11-18T18:41:33;101944.47;;;4.37;100.00
75998;BME280;64685;48.762;44.822;2023-11-18T18:46:37;101960.28;;;4.58;100.00
75998;BME280;64685;48.762;44.822;2023-11-18T18:51:39;101952.81;;;4.59;100.00
75998;BME280;64685;48.762;44.822;2023-11-18T18:56:42;101957.78;;;4.57;100.00
75998;BME280;64685;48.762;44.822;2023-11-18T19:01:46;101963.63;;;4.60;100.00
75998;BME280;64685;48.762;44.822;2023-11-18T19:06:50;101956.34;;;4.54;100.00
75998;BME280;64685;48.762;44.822;2023-11-18T19:11:53;101958.50;;;4.52;100.00
75998;BME280;64685;48.762;44.822;2023-11-18T19:16:57;101940.34;;;4.56;100.00
75998;BME280;64685;48.762;44.822;2023-11-18T19:22:03;101953.47;;;4.82;100.00
75998;BME280;64685;48.762;44.822;2023-11-18T19:27:08;101951.38;;;4.73;100.00
75998;BME280;64685;48.762;44.822;2023-11-18T19:32:13;101950.63;;;4.77;100.00
75998;BME280;64685;48.762;44.822;2023-11-18T19:37:16;101947.94;;;4.82;100.00
75998;BME280;64685;48.762;44.822;2023-11-18T19:42:19;101946.19;;;4.76;100.00
75998;BME280;64685;48.762;44.822;2023-11-18T19:47:24;101948.03;;;4.71;100.00
75998;BME280;64685;48.762;44.822;2023-11-18T19:52:27;101961.69;;;4.61;100.00
75998;BME280;64685;48.762;44.822;2023-11-18T19:57:30;101966.31;;;4.55;100.00
75998;BME280;64685;48.762;44.822;2023-11-18T20:02:37;101958.03;;;4.55;100.00
75998;BME280;64685;48.762;44.822;2023-11-18T20:07:43;101966.41;;;4.60;100.00
75998;BME280;64685;48.762;44.822;2023-11-18T20:12:46;101964.97;;;4.58;100.00
75998;BME280;64685;48.762;44.822;2023-11-18T20:17:49;101958.47;;;4.47;100.00
75998;BME280;64685;48.762;44.822;2023-11-18T20:22:53;101967.50;;;4.59;100.00
75998;BME280;64685;48.762;44.822;2023-11-18T20:27:57;101967.75;;;4.58;100.00
75998;BME280;64685;48.762;44.822;2023-11-18T20:32:59;101955.50;;;4.54;100.00
75998;BME280;64685;48.762;44.822;2023-11-18T20:38:02;101948.97;;;4.60;100.00
75998;BME280;64685;48.762;44.822;2023-11-18T20:43:05;101956.28;;;4.49;100.00
75998;BME280;64685;48.762;44.822;2023-11-18T20:48:10;101962.28;;;4.46;100.00
75998;BME280;64685;48.762;44.822;2023-11-18T20:53:12;101962.91;;;4.48;100.00
75998;BME280;64685;48.762;44.822;2023-11-18T20:58:15;101948.38;;;4.41;100.00
75998;BME280;64685;48.762;44.822;2023-11-18T21:03:18;101943.13;;;4.40;100.00
75998;BME280;64685;48.762;44.822;2023-11-18T21:08:24;101953.09;;;4.41;100.00
75998;BME280;64685;48.762;44.822;2023-11-18T21:13:27;101945.19;;;4.33;100.00
75998;BME280;64685;48.762;44.822;2023-11-18T21:18:30;101949.41;;;4.35;100.00
75998;BME280;64685;48.762;44.822;2023-11-18T21:23:33;101956.88;;;4.35;100.00
75998;BME280;64685;48.762;44.822;2023-11-18T21:28:36;101944.88;;;4.29;100.00
75998;BME280;64685;48.762;44.822;2023-11-18T21:33:40;101935.69;;;4.24;100.00
75998;BME280;64685;48.762;44.822;2023-11-18T21:38:43;101932.34;;;4.22;100.00
75998;BME280;64685;48.762;44.822;2023-11-18T21:43:55;101929.56;;;4.22;100.00
75998;BME280;64685;48.762;44.822;2023-11-18T21:49:00;101938.34;;;4.19;100.00
75998;BME280;64685;48.762;44.822;2023-11-18T21:54:03;101937.88;;;4.22;100.00
75998;BME280;64685;48.762;44.822;2023-11-18T21:59:06;101938.19;;;4.25;100.00
75998;BME280;64685;48.762;44.822;2023-11-18T22:10:08;101952.59;;;4.27;100.00
75998;BME280;64685;48.762;44.822;2023-11-18T22:15:15;101954.44;;;4.22;100.00
75998;BME280;64685;48.762;44.822;2023-11-18T22:20:19;101954.00;;;4.13;100.00
75998;BME280;64685;48.762;44.822;2023-11-18T22:25:27;101959.03;;;4.16;100.00
75998;BME280;64685;48.762;44.822;2023-11-18T22:30:30;101967.09;;;4.18;100.00
75998;BME280;64685;48.762;44.822;2023-11-18T22:35:33;101970.78;;;4.07;100.00
75998;BME280;64685;48.762;44.822;2023-11-18T22:40:38;101978.22;;;4.06;100.00
75998;BME280;64685;48.762;44.822;2023-11-18T22:45:41;101958.94;;;3.95;100.00
75998;BME280;64685;48.762;44.822;2023-11-18T22:50:45;101962.63;;;4.00;100.00
75998;BME280;64685;48.762;44.822;2023-11-18T22:55:47;101965.56;;;3.94;100.00
75998;BME280;64685;48.762;44.822;2023-11-18T23:00:53;101961.72;;;3.95;100.00
75998;BME280;64685;48.762;44.822;2023-11-18T23:05:57;101959.34;;;3.87;100.00
75998;BME280;64685;48.762;44.822;2023-11-18T23:11:11;101988.63;;;3.88;100.00
75998;BME280;64685;48.762;44.822;2023-11-18T23:16:14;101986.63;;;3.83;100.00
75998;BME280;64685;48.762;44.822;2023-11-18T23:21:17;102012.50;;;3.77;100.00
75998;BME280;64685;48.762;44.822;2023-11-18T23:26:19;102003.63;;;3.75;100.00
75998;BME280;64685;48.762;44.822;2023-11-18T23:31:23;102021.88;;;3.76;100.00
75998;BME280;64685;48.762;44.822;2023-11-18T23:36:29;102017.66;;;3.74;100.00
75998;BME280;64685;48.762;44.822;2023-11-18T23:41:32;102015.00;;;3.79;100.00
75998;BME280;64685;48.762;44.822;2023-11-18T23:46:35;102012.50;;;3.77;100.00
75998;BME280;64685;48.762;44.822;2023-11-18T23:51:38;102003.28;;;3.72;100.00
75998;BME280;64685;48.762;44.822;2023-11-18T23:56:40;101998.47;;;3.67;100.00
